sensor_id;sensor_type;location;lat;lon;timestamp;pressure;altitude;pressure_sealevel;temperature;humidity
52535;BME280;38443;53.164;5.802;2023-06-04T00:00:51;102537.38;;;10.36;100.00
52535;BME280;38443;53.164;5.802;2023-06-04T00:03:17;102537.41;;;10.33;100.00
52535;BME280;38443;53.164;5.802;2023-06-04T00:05:42;102541.88;;;10.31;100.00
52535;BME280;38443;53.164;5.802;2023-06-04T00:08:07;102539.13;;;10.26;100.00
52535;BME280;38443;53.164;5.802;2023-06-04T00:10:32;102536.47;;;10.23;100.00
52535;BME280;38443;53.164;5.802;2023-06-04T00:12:59;102547.19;;;10.22;100.00
52535;BME280;38443;53.164;5.802;2023-06-04T00:15:24;102547.19;;;10.18;100.00
52535;BME280;38443;53.164;5.802;2023-06-04T00:17:49;102540.03;;;10.16;100.00
52535;BME280;38443;53.164;5.802;2023-06-04T00:20:16;102540.94;;;10.13;100.00
52535;BME280;38443;53.164;5.802;2023-06-04T00:22:41;102539.16;;;10.09;100.00
52535;BME280;38443;53.164;5.802;2023-06-04T00:25:08;102541.81;;;10.06;100.00
52535;BME280;38443;53.164;5.802;2023-06-04T00:27:34;102532.94;;;10.03;100.00
52535;BME280;38443;53.164;5.802;2023-06-04T00:29:59;102547.16;;;10.00;100.00
52535;BME280;38443;53.164;5.802;2023-06-04T00:32:24;102544.50;;;9.97;100.00
52535;BME280;38443;53.164;5.802;2023-06-04T00:34:53;102544.50;;;9.94;100.00
52535;BME280;38443;53.164;5.802;2023-06-04T00:37:21;102540.03;;;9.90;100.00
52535;BME280;38443;53.164;5.802;2023-06-04T00:39:47;102548.06;;;9.87;100.00
52535;BME280;38443;53.164;5.802;2023-06-04T00:42:13;102546.28;;;9.83;100.00
52535;BME280;38443;53.164;5.802;2023-06-04T00:44:38;102549.81;;;9.80;100.00
52535;BME280;38443;53.164;5.802;2023-06-04T00:47:08;102549.81;;;9.75;100.00
52535;BME280;38443;53.164;5.802;2023-06-04T00:49:33;102555.16;;;9.74;100.00
52535;BME280;38443;53.164;5.802;2023-06-04T00:51:59;102542.69;;;9.71;100.00
52535;BME280;38443;53.164;5.802;2023-06-04T00:54:25;102549.84;;;9.71;100.00
52535;BME280;38443;53.164;5.802;2023-06-04T00:56:50;102548.03;;;9.71;100.00
52535;BME280;38443;53.164;5.802;2023-06-04T00:59:15;102554.28;;;9.69;100.00
52535;BME280;38443;53.164;5.802;2023-06-04T01:02:06;102551.59;;;9.67;100.00
52535;BME280;38443;53.164;5.802;2023-06-04T01:04:42;102553.38;;;9.65;100.00
52535;BME280;38443;53.164;5.802;2023-06-04T01:07:09;102555.16;;;9.63;100.00
52535;BME280;38443;53.164;5.802;2023-06-04T01:09:38;102556.06;;;9.61;100.00
52535;BME280;38443;53.164;5.802;2023-06-04T01:12:04;102553.38;;;9.59;100.00
52535;BME280;38443;53.164;5.802;2023-06-04T01:14:30;102554.25;;;9.56;100.00
52535;BME280;38443;53.164;5.802;2023-06-04T01:20:16;102551.56;;;9.55;100.00
52535;BME280;38443;53.164;5.802;2023-06-04T01:22:46;102552.47;;;9.51;100.00
52535;BME280;38443;53.164;5.802;2023-06-04T01:25:22;102547.97;;;9.50;100.00
52535;BME280;38443;53.164;5.802;2023-06-04T01:27:52;102548.00;;;9.47;100.00
52535;BME280;38443;53.164;5.802;2023-06-04T01:30:29;102553.31;;;9.45;100.00
52535;BME280;38443;53.164;5.802;2023-06-04T01:32:55;102553.31;;;9.41;100.00
52535;BME280;38443;53.164;5.802;2023-06-04T01:35:21;102556.00;;;9.41;100.00
52535;BME280;38443;53.164;5.802;2023-06-04T01:37:46;102547.94;;;9.36;100.00
52535;BME280;38443;53.164;5.802;2023-06-04T01:40:12;102549.72;;;9.34;100.00
52535;BME280;38443;53.164;5.802;2023-06-04T01:42:38;102551.50;;;9.32;100.00
52535;BME280;38443;53.164;5.802;2023-06-04T01:45:03;102550.59;;;9.31;100.00
52535;BME280;38443;53.164;5.802;2023-06-04T01:47:29;102549.72;;;9.29;100.00
52535;BME280;38443;53.164;5.802;2023-06-04T01:49:54;102540.81;;;9.30;100.00
52535;BME280;38443;53.164;5.802;2023-06-04T01:52:20;102537.22;;;9.25;100.00
52535;BME280;38443;53.164;5.802;2023-06-04T01:54:46;102544.34;;;9.25;100.00
52535;BME280;38443;53.164;5.802;2023-06-04T01:57:13;102544.34;;;9.23;100.00
52535;BME280;38443;53.164;5.802;2023-06-04T01:59:39;102543.47;;;9.26;100.00
52535;BME280;38443;53.164;5.802;2023-06-04T02:02:06;102542.59;;;9.22;100.00
52535;BME280;38443;53.164;5.802;2023-06-04T02:04:31;102548.78;;;9.21;100.00
52535;BME280;38443;53.164;5.802;2023-06-04T02:06:57;102539.88;;;9.19;100.00
52535;BME280;38443;53.164;5.802;2023-06-04T02:09:25;102541.63;;;9.15;100.00
52535;BME280;38443;53.164;5.802;2023-06-04T02:11:51;102546.97;;;9.14;100.00
52535;BME280;38443;53.164;5.802;2023-06-04T02:14:16;102545.19;;;9.11;100.00
52535;BME280;38443;53.164;5.802;2023-06-04T02:16:41;102547.84;;;9.05;100.00
52535;BME280;38443;53.164;5.802;2023-06-04T02:19:06;102551.41;;;9.03;100.00
52535;BME280;38443;53.164;5.802;2023-06-04T02:21:32;102547.81;;;8.99;100.00
52535;BME280;38443;53.164;5.802;2023-06-04T02:23:58;102545.09;;;8.96;100.00
52535;BME280;38443;53.164;5.802;2023-06-04T02:26:23;102554.06;;;8.98;100.00
52535;BME280;38443;53.164;5.802;2023-06-04T02:28:50;102552.25;;;8.92;100.00
52535;BME280;38443;53.164;5.802;2023-06-04T02:31:15;102555.78;;;8.96;100.00
52535;BME280;38443;53.164;5.802;2023-06-04T02:33:41;102553.09;;;8.91;100.00
52535;BME280;38443;53.164;5.802;2023-06-04T02:36:06;102554.03;;;8.95;100.00
52535;BME280;38443;53.164;5.802;2023-06-04T02:38:31;102566.47;;;8.91;100.00
52535;BME280;38443;53.164;5.802;2023-06-04T02:40:57;102554.00;;;8.93;100.00
52535;BME280;38443;53.164;5.802;2023-06-04T02:43:22;102558.47;;;8.97;100.00
52535;BME280;38443;53.164;5.802;2023-06-04T02:45:47;102559.34;;;8.93;100.00
52535;BME280;38443;53.164;5.802;2023-06-04T02:48:13;102566.50;;;8.97;100.00
52535;BME280;38443;53.164;5.802;2023-06-04T02:50:38;102562.00;;;8.93;100.00
52535;BME280;38443;53.164;5.802;2023-06-04T02:53:04;102558.50;;;8.99;100.00
52535;BME280;38443;53.164;5.802;2023-06-04T02:55:29;102562.91;;;8.94;100.00
52535;BME280;38443;53.164;5.802;2023-06-04T02:57:55;102553.09;;;8.91;100.00
52535;BME280;38443;53.164;5.802;2023-06-04T03:00:21;102547.75;;;8.91;100.00
52535;BME280;38443;53.164;5.802;2023-06-04T03:02:47;102551.34;;;8.95;100.00
52535;BME280;38443;53.164;5.802;2023-06-04T03:05:14;102550.44;;;8.91;100.00
52535;BME280;38443;53.164;5.802;2023-06-04T03:07:42;102554.88;;;8.89;100.00
52535;BME280;38443;53.164;5.802;2023-06-04T03:10:09;102554.00;;;8.89;100.00
52535;BME280;38443;53.164;5.802;2023-06-04T03:12:35;102552.22;;;8.89;100.00
52535;BME280;38443;53.164;5.802;2023-06-04T03:15:00;102556.66;;;8.92;100.00
52535;BME280;38443;53.164;5.802;2023-06-04T03:17:26;102562.00;;;8.87;100.00
52535;BME280;38443;53.164;5.802;2023-06-04T03:19:51;102557.56;;;8.86;100.00
52535;BME280;38443;53.164;5.802;2023-06-04T03:22:17;102557.53;;;8.89;100.00
52535;BME280;38443;53.164;5.802;2023-06-04T03:24:42;102546.84;;;8.85;100.00
52535;BME280;38443;53.164;5.802;2023-06-04T03:27:09;102552.19;;;8.85;100.00
52535;BME280;38443;53.164;5.802;2023-06-04T03:29:35;102560.22;;;8.86;100.00
52535;BME280;38443;53.164;5.802;2023-06-04T03:32:00;102556.63;;;8.86;100.00
52535;BME280;38443;53.164;5.802;2023-06-04T03:34:26;102562.03;;;8.90;100.00
52535;BME280;38443;53.164;5.802;2023-06-04T03:36:53;102559.31;;;8.87;100.00
52535;BME280;38443;53.164;5.802;2023-06-04T03:39:18;102555.75;;;8.87;100.00
52535;BME280;38443;53.164;5.802;2023-06-04T03:41:44;102550.44;;;8.91;100.00
52535;BME280;38443;53.164;5.802;2023-06-04T03:44:09;102554.88;;;8.88;100.00
52535;BME280;38443;53.164;5.802;2023-06-04T03:46:35;102544.22;;;8.91;100.00
52535;BME280;38443;53.164;5.802;2023-06-04T03:49:00;102554.91;;;8.95;100.00
52535;BME280;38443;53.164;5.802;2023-06-04T03:51:26;102556.69;;;8.93;100.00
52535;BME280;38443;53.164;5.802;2023-06-04T03:53:51;102559.38;;;8.99;100.00
52535;BME280;38443;53.164;5.802;2023-06-04T03:56:16;102561.16;;;8.97;100.00
52535;BME280;38443;53.164;5.802;2023-06-04T03:58:41;102558.53;;;9.05;100.00
52535;BME280;38443;53.164;5.802;2023-06-04T04:01:07;102555.84;;;9.04;100.00
52535;BME280;38443;53.164;5.802;2023-06-04T04:03:36;102560.31;;;9.08;100.00
52535;BME280;38443;53.164;5.802;2023-06-04T04:06:02;102563.91;;;9.13;100.00
52535;BME280;38443;53.164;5.802;2023-06-04T04:08:27;102558.59;;;9.19;100.00
52535;BME280;38443;53.164;5.802;2023-06-04T04:10:56;102555.00;;;9.17;100.00
52535;BME280;38443;53.164;5.802;2023-06-04T04:13:22;102559.50;;;9.23;100.00
52535;BME280;38443;53.164;5.802;2023-06-04T04:15:47;102561.28;;;9.22;100.00
52535;BME280;38443;53.164;5.802;2023-06-04T04:18:12;102571.97;;;9.30;100.00
52535;BME280;38443;53.164;5.802;2023-06-04T04:20:38;102565.75;;;9.29;100.00
52535;BME280;38443;53.164;5.802;2023-06-04T04:23:03;102570.22;;;9.35;100.00
52535;BME280;38443;53.164;5.802;2023-06-04T04:25:29;102566.66;;;9.36;100.00
52535;BME280;38443;53.164;5.802;2023-06-04T04:27:54;102567.53;;;9.38;100.00
52535;BME280;38443;53.164;5.802;2023-06-04T04:30:21;102567.56;;;9.41;100.00
52535;BME280;38443;53.164;5.802;2023-06-04T04:32:47;102564.94;;;9.44;100.00
52535;BME280;38443;53.164;5.802;2023-06-04T04:35:15;102564.03;;;9.47;100.00
52535;BME280;38443;53.164;5.802;2023-06-04T04:37:44;102571.19;;;9.52;100.00
52535;BME280;38443;53.164;5.802;2023-06-04T04:40:10;102570.31;;;9.56;100.00
52535;BME280;38443;53.164;5.802;2023-06-04T04:42:37;102565.84;;;9.57;100.00
52535;BME280;38443;53.164;5.802;2023-06-04T04:45:02;102570.31;;;9.66;100.00
52535;BME280;38443;53.164;5.802;2023-06-04T04:47:27;102567.63;;;9.67;100.00
52535;BME280;38443;53.164;5.802;2023-06-04T04:49:53;102562.31;;;9.73;100.00
52535;BME280;38443;53.164;5.802;2023-06-04T04:52:18;102566.78;;;9.74;100.00
52535;BME280;38443;53.164;5.802;2023-06-04T04:54:43;102565.88;;;9.82;100.00
52535;BME280;38443;53.164;5.802;2023-06-04T04:57:08;102570.34;;;9.84;100.00
52535;BME280;38443;53.164;5.802;2023-06-04T04:59:34;102567.69;;;9.89;100.00
52535;BME280;38443;53.164;5.802;2023-06-04T05:01:59;102565.91;;;9.98;100.00
52535;BME280;38443;53.164;5.802;2023-06-04T05:04:25;102569.47;;;10.02;100.00
52535;BME280;38443;53.164;5.802;2023-06-04T05:06:51;102568.59;;;10.08;100.00
52535;BME280;38443;53.164;5.802;2023-06-04T05:09:16;102569.47;;;10.17;100.00
52535;BME280;38443;53.164;5.802;2023-06-04T05:11:41;102573.94;;;10.20;100.00
52535;BME280;38443;53.164;5.802;2023-06-04T05:14:07;102565.03;;;10.29;100.00
52535;BME280;38443;53.164;5.802;2023-06-04T05:16:32;102572.19;;;10.36;100.00
52535;BME280;38443;53.164;5.802;2023-06-04T05:19:01;102565.94;;;10.43;100.00
52535;BME280;38443;53.164;5.802;2023-06-04T05:21:27;102568.63;;;10.51;100.00
52535;BME280;38443;53.164;5.802;2023-06-04T05:23:54;102560.56;;;10.55;100.00
52535;BME280;38443;53.164;5.802;2023-06-04T05:26:19;102557.88;;;10.63;100.00
52535;BME280;38443;53.164;5.802;2023-06-04T05:28:48;102564.09;;;10.68;100.00
52535;BME280;38443;53.164;5.802;2023-06-04T05:31:13;102565.00;;;10.76;100.00
52535;BME280;38443;53.164;5.802;2023-06-04T05:33:41;102568.56;;;10.85;100.00
52535;BME280;38443;53.164;5.802;2023-06-04T05:36:06;102556.03;;;10.90;100.00
52535;BME280;38443;53.164;5.802;2023-06-04T05:38:32;102564.03;;;10.97;100.00
52535;BME280;38443;53.164;5.802;2023-06-04T05:40:58;102553.28;;;11.02;100.00
52535;BME280;38443;53.164;5.802;2023-06-04T05:43:23;102561.31;;;11.08;100.00
52535;BME280;38443;53.164;5.802;2023-06-04T05:45:49;102555.03;;;11.12;100.00
52535;BME280;38443;53.164;5.802;2023-06-04T05:48:16;102551.47;;;11.15;100.00
52535;BME280;38443;53.164;5.802;2023-06-04T05:50:41;102553.25;;;11.21;100.00
52535;BME280;38443;53.164;5.802;2023-06-04T05:53:07;102556.78;;;11.26;100.00
52535;BME280;38443;53.164;5.802;2023-06-04T05:55:32;102558.53;;;11.31;100.00
52535;BME280;38443;53.164;5.802;2023-06-04T05:57:57;102561.19;;;11.39;100.00
52535;BME280;38443;53.164;5.802;2023-06-04T06:00:23;102556.69;;;11.46;100.00
52535;BME280;38443;53.164;5.802;2023-06-04T06:02:52;102559.31;;;11.53;100.00
52535;BME280;38443;53.164;5.802;2023-06-04T06:05:18;102561.06;;;11.62;100.00
52535;BME280;38443;53.164;5.802;2023-06-04T06:07:45;102558.31;;;11.68;100.00
52535;BME280;38443;53.164;5.802;2023-06-04T06:10:11;102559.19;;;11.75;100.00
52535;BME280;38443;53.164;5.802;2023-06-04T06:12:37;102552.88;;;11.84;100.00
52535;BME280;38443;53.164;5.802;2023-06-04T06:15:02;102555.53;;;11.91;100.00
52535;BME280;38443;53.164;5.802;2023-06-04T06:17:28;102559.97;;;11.95;100.00
52535;BME280;38443;53.164;5.802;2023-06-04T06:19:54;102545.69;;;11.95;100.00
52535;BME280;38443;53.164;5.802;2023-06-04T06:22:19;102555.50;;;11.97;100.00
52535;BME280;38443;53.164;5.802;2023-06-04T06:24:44;102557.25;;;12.03;100.00
52535;BME280;38443;53.164;5.802;2023-06-04T06:27:10;102552.72;;;12.08;100.00
52535;BME280;38443;53.164;5.802;2023-06-04T06:29:36;102560.59;;;12.31;100.00
52535;BME280;38443;53.164;5.802;2023-06-04T06:32:03;102551.59;;;13.16;100.00
52535;BME280;38443;53.164;5.802;2023-06-04T06:34:28;102545.78;;;14.09;100.00
52535;BME280;38443;53.164;5.802;2023-06-04T06:36:54;102542.47;;;14.94;100.00
52535;BME280;38443;53.164;5.802;2023-06-04T06:39:19;102534.94;;;15.52;100.00
52535;BME280;38443;53.164;5.802;2023-06-04T06:41:45;102535.91;;;15.88;100.00
52535;BME280;38443;53.164;5.802;2023-06-04T06:44:10;102542.13;;;15.92;100.00
52535;BME280;38443;53.164;5.802;2023-06-04T06:46:36;102538.75;;;16.20;100.00
52535;BME280;38443;53.164;5.802;2023-06-04T06:49:01;102532.59;;;16.47;100.00
52535;BME280;38443;53.164;5.802;2023-06-04T06:51:26;102543.47;;;16.46;100.00
52535;BME280;38443;53.164;5.802;2023-06-04T06:53:52;102545.84;;;16.58;100.00
52535;BME280;38443;53.164;5.802;2023-06-04T06:56:17;102537.00;;;16.86;100.00
52535;BME280;38443;53.164;5.802;2023-06-04T06:58:43;102530.81;;;17.12;100.00
52535;BME280;38443;53.164;5.802;2023-06-04T07:01:09;102542.16;;;17.25;100.00
52535;BME280;38443;53.164;5.802;2023-06-04T07:03:34;102546.88;;;17.18;100.00
52535;BME280;38443;53.164;5.802;2023-06-04T07:06:01;102542.75;;;17.05;100.00
52535;BME280;38443;53.164;5.802;2023-06-04T07:08:26;102544.72;;;17.29;100.00
52535;BME280;38443;53.164;5.802;2023-06-04T07:10:53;102547.31;;;17.34;100.00
52535;BME280;38443;53.164;5.802;2023-06-04T07:13:18;102537.00;;;17.45;100.00
52535;BME280;38443;53.164;5.802;2023-06-04T07:15:44;102542.81;;;17.63;100.00
52535;BME280;38443;53.164;5.802;2023-06-04T07:18:09;102545.19;;;17.44;100.00
52535;BME280;38443;53.164;5.802;2023-06-04T07:20:35;102547.63;;;17.53;100.00
52535;BME280;38443;53.164;5.802;2023-06-04T07:23:00;102541.63;;;17.42;100.00
52535;BME280;38443;53.164;5.802;2023-06-04T07:25:25;102549.44;;;17.52;100.00
52535;BME280;38443;53.164;5.802;2023-06-04T07:27:51;102551.47;;;17.74;100.00
52535;BME280;38443;53.164;5.802;2023-06-04T07:30:17;102552.06;;;17.84;100.00
52535;BME280;38443;53.164;5.802;2023-06-04T07:32:47;102550.59;;;18.02;100.00
52535;BME280;38443;53.164;5.802;2023-06-04T07:35:12;102547.94;;;18.27;100.00
52535;BME280;38443;53.164;5.802;2023-06-04T07:37:38;102547.00;;;18.54;100.00
52535;BME280;38443;53.164;5.802;2023-06-04T07:40:03;102531.81;;;18.99;100.00
52535;BME280;38443;53.164;5.802;2023-06-04T07:42:29;102544.50;;;19.22;100.00
52535;BME280;38443;53.164;5.802;2023-06-04T07:44:54;102546.84;;;18.84;100.00
52535;BME280;38443;53.164;5.802;2023-06-04T07:47:20;102546.47;;;18.43;100.00
52535;BME280;38443;53.164;5.802;2023-06-04T07:49:45;102548.03;;;18.24;100.00
52535;BME280;38443;53.164;5.802;2023-06-04T07:52:10;102544.84;;;18.38;100.00
52535;BME280;38443;53.164;5.802;2023-06-04T07:54:36;102536.94;;;18.83;100.00
52535;BME280;38443;53.164;5.802;2023-06-04T07:57:05;102543.19;;;18.85;100.00
52535;BME280;38443;53.164;5.802;2023-06-04T07:59:30;102538.31;;;18.95;100.00
52535;BME280;38443;53.164;5.802;2023-06-04T08:01:56;102547.38;;;18.94;100.00
52535;BME280;38443;53.164;5.802;2023-06-04T08:04:21;102538.88;;;18.80;100.00
52535;BME280;38443;53.164;5.802;2023-06-04T08:06:47;102535.34;;;18.76;100.00
52535;BME280;38443;53.164;5.802;2023-06-04T08:09:12;102542.38;;;19.07;100.00
52535;BME280;38443;53.164;5.802;2023-06-04T08:11:39;102542.22;;;19.11;100.00
52535;BME280;38443;53.164;5.802;2023-06-04T08:14:05;102545.28;;;19.26;100.00
52535;BME280;38443;53.164;5.802;2023-06-04T08:16:31;102551.28;;;19.34;100.00
52535;BME280;38443;53.164;5.802;2023-06-04T08:18:57;102552.09;;;19.60;100.00
52535;BME280;38443;53.164;5.802;2023-06-04T08:21:26;102550.91;;;19.67;99.79
52535;BME280;38443;53.164;5.802;2023-06-04T08:23:52;102553.47;;;19.48;100.00
52535;BME280;38443;53.164;5.802;2023-06-04T08:26:17;102544.63;;;19.19;100.00
52535;BME280;38443;53.164;5.802;2023-06-04T08:28:44;102548.03;;;19.24;100.00
52535;BME280;38443;53.164;5.802;2023-06-04T08:31:10;102551.81;;;19.44;100.00
52535;BME280;38443;53.164;5.802;2023-06-04T08:33:35;102550.16;;;19.63;100.00
52535;BME280;38443;53.164;5.802;2023-06-04T08:36:00;102549.63;;;19.77;96.45
52535;BME280;38443;53.164;5.802;2023-06-04T08:38:26;102552.91;;;19.85;94.89
52535;BME280;38443;53.164;5.802;2023-06-04T08:40:52;102559.63;;;19.77;92.05
52535;BME280;38443;53.164;5.802;2023-06-04T08:43:19;102561.38;;;19.54;91.12
52535;BME280;38443;53.164;5.802;2023-06-04T08:45:49;102548.75;;;19.29;90.86
52535;BME280;38443;53.164;5.802;2023-06-04T08:48:14;102548.50;;;19.12;94.17
52535;BME280;38443;53.164;5.802;2023-06-04T08:50:42;102553.38;;;19.27;99.60
52535;BME280;38443;53.164;5.802;2023-06-04T08:53:11;102555.75;;;19.37;97.00
52535;BME280;38443;53.164;5.802;2023-06-04T08:55:38;102555.28;;;19.00;97.34
52535;BME280;38443;53.164;5.802;2023-06-04T08:58:05;102558.06;;;18.73;90.04
52535;BME280;38443;53.164;5.802;2023-06-04T09:00:33;102553.03;;;18.88;93.72
52535;BME280;38443;53.164;5.802;2023-06-04T09:03:01;102547.78;;;19.08;92.15
52535;BME280;38443;53.164;5.802;2023-06-04T09:05:27;102543.22;;;19.09;92.18
52535;BME280;38443;53.164;5.802;2023-06-04T09:07:53;102544.22;;;19.06;92.08
52535;BME280;38443;53.164;5.802;2023-06-04T09:10:22;102552.69;;;18.97;92.72
52535;BME280;38443;53.164;5.802;2023-06-04T09:12:49;102557.63;;;18.86;94.44
52535;BME280;38443;53.164;5.802;2023-06-04T09:15:16;102551.59;;;19.03;92.04
52535;BME280;38443;53.164;5.802;2023-06-04T09:17:41;102539.53;;;19.10;87.08
52535;BME280;38443;53.164;5.802;2023-06-04T09:20:07;102544.41;;;19.25;84.60
52535;BME280;38443;53.164;5.802;2023-06-04T09:22:34;102545.06;;;18.83;85.91
52535;BME280;38443;53.164;5.802;2023-06-04T09:25:01;102546.13;;;18.79;90.45
52535;BME280;38443;53.164;5.802;2023-06-04T09:27:37;102549.22;;;18.93;87.23
52535;BME280;38443;53.164;5.802;2023-06-04T09:30:04;102553.00;;;19.13;89.67
52535;BME280;38443;53.164;5.802;2023-06-04T09:32:31;102546.38;;;18.71;85.97
52535;BME280;38443;53.164;5.802;2023-06-04T09:35:08;102569.81;;;18.22;80.21
52535;BME280;38443;53.164;5.802;2023-06-04T09:37:35;102570.56;;;18.26;86.16
52535;BME280;38443;53.164;5.802;2023-06-04T09:40:01;102567.47;;;18.38;85.97
52535;BME280;38443;53.164;5.802;2023-06-04T09:42:26;102557.28;;;18.70;85.80
52535;BME280;38443;53.164;5.802;2023-06-04T09:44:52;102557.22;;;18.46;81.93
52535;BME280;38443;53.164;5.802;2023-06-04T09:47:17;102566.72;;;18.33;83.89
52535;BME280;38443;53.164;5.802;2023-06-04T09:49:46;102570.06;;;18.14;81.67
52535;BME280;38443;53.164;5.802;2023-06-04T09:52:13;102556.16;;;18.24;82.01
52535;BME280;38443;53.164;5.802;2023-06-04T09:54:40;102567.72;;;18.30;83.04
52535;BME280;38443;53.164;5.802;2023-06-04T09:57:19;102561.13;;;18.38;78.29
52535;BME280;38443;53.164;5.802;2023-06-04T09:59:45;102568.91;;;18.48;85.48
52535;BME280;38443;53.164;5.802;2023-06-04T10:02:19;102560.88;;;18.70;82.24
52535;BME280;38443;53.164;5.802;2023-06-04T10:04:52;102561.34;;;18.83;80.12
52535;BME280;38443;53.164;5.802;2023-06-04T10:07:20;102570.53;;;18.79;78.66
52535;BME280;38443;53.164;5.802;2023-06-04T10:09:47;102568.06;;;18.71;76.46
52535;BME280;38443;53.164;5.802;2023-06-04T10:12:16;102587.88;;;18.73;75.05
52535;BME280;38443;53.164;5.802;2023-06-04T10:14:52;102573.22;;;18.81;77.40
52535;BME280;38443;53.164;5.802;2023-06-04T10:17:22;102574.88;;;18.58;77.01
52535;BME280;38443;53.164;5.802;2023-06-04T10:19:49;102581.00;;;18.38;78.88
52535;BME280;38443;53.164;5.802;2023-06-04T10:22:17;102575.41;;;18.43;78.99
52535;BME280;38443;53.164;5.802;2023-06-04T10:24:43;102588.19;;;18.39;78.36
52535;BME280;38443;53.164;5.802;2023-06-04T10:27:11;102578.59;;;18.02;80.95
52535;BME280;38443;53.164;5.802;2023-06-04T10:29:38;102584.97;;;18.00;80.21
52535;BME280;38443;53.164;5.802;2023-06-04T10:32:04;102588.84;;;17.92;79.38
52535;BME280;38443;53.164;5.802;2023-06-04T10:34:30;102575.03;;;18.00;79.58
52535;BME280;38443;53.164;5.802;2023-06-04T10:36:55;102579.34;;;18.06;79.43
52535;BME280;38443;53.164;5.802;2023-06-04T10:39:28;102585.22;;;17.92;81.89
52535;BME280;38443;53.164;5.802;2023-06-04T10:42:04;102587.56;;;18.04;82.39
52535;BME280;38443;53.164;5.802;2023-06-04T10:44:31;102589.22;;;18.08;80.59
52535;BME280;38443;53.164;5.802;2023-06-04T10:46:57;102587.72;;;18.26;80.29
52535;BME280;38443;53.164;5.802;2023-06-04T10:49:27;102575.72;;;18.33;81.77
52535;BME280;38443;53.164;5.802;2023-06-04T10:51:53;102588.31;;;18.08;80.93
52535;BME280;38443;53.164;5.802;2023-06-04T10:54:24;102588.53;;;18.02;78.81
52535;BME280;38443;53.164;5.802;2023-06-04T10:56:52;102588.28;;;18.09;78.22
52535;BME280;38443;53.164;5.802;2023-06-04T10:59:18;102591.78;;;18.13;77.46
52535;BME280;38443;53.164;5.802;2023-06-04T11:01:44;102596.19;;;18.16;74.80
52535;BME280;38443;53.164;5.802;2023-06-04T11:04:23;102596.31;;;18.12;74.12
52535;BME280;38443;53.164;5.802;2023-06-04T11:07:06;102599.00;;;18.41;76.15
52535;BME280;38443;53.164;5.802;2023-06-04T11:09:47;102591.78;;;18.66;67.55
52535;BME280;38443;53.164;5.802;2023-06-04T11:12:13;102594.00;;;18.80;67.45
52535;BME280;38443;53.164;5.802;2023-06-04T11:14:39;102596.81;;;18.77;67.23
52535;BME280;38443;53.164;5.802;2023-06-04T11:17:12;102598.25;;;18.62;69.65
52535;BME280;38443;53.164;5.802;2023-06-04T11:19:38;102594.19;;;18.74;72.90
52535;BME280;38443;53.164;5.802;2023-06-04T11:22:11;102588.72;;;18.50;73.22
52535;BME280;38443;53.164;5.802;2023-06-04T11:24:40;102589.06;;;18.40;73.32
52535;BME280;38443;53.164;5.802;2023-06-04T11:27:06;102588.59;;;18.53;74.92
52535;BME280;38443;53.164;5.802;2023-06-04T11:29:32;102582.91;;;18.61;74.16
52535;BME280;38443;53.164;5.802;2023-06-04T11:31:58;102581.84;;;18.65;72.23
52535;BME280;38443;53.164;5.802;2023-06-04T11:34:27;102581.03;;;18.63;70.93
52535;BME280;38443;53.164;5.802;2023-06-04T11:36:53;102582.41;;;18.75;70.90
52535;BME280;38443;53.164;5.802;2023-06-04T11:39:20;102573.63;;;18.93;70.46
52535;BME280;38443;53.164;5.802;2023-06-04T11:41:45;102572.81;;;18.91;70.51
52535;BME280;38443;53.164;5.802;2023-06-04T11:44:12;102574.47;;;18.96;72.37
52535;BME280;38443;53.164;5.802;2023-06-04T11:46:41;102568.66;;;19.06;71.23
52535;BME280;38443;53.164;5.802;2023-06-04T11:49:11;102573.38;;;19.25;69.61
52535;BME280;38443;53.164;5.802;2023-06-04T11:51:37;102569.75;;;19.48;68.84
52535;BME280;38443;53.164;5.802;2023-06-04T11:54:02;102566.72;;;19.33;71.80
52535;BME280;38443;53.164;5.802;2023-06-04T11:56:28;102566.59;;;19.13;75.30
52535;BME280;38443;53.164;5.802;2023-06-04T11:58:54;102565.34;;;19.22;73.58
52535;BME280;38443;53.164;5.802;2023-06-04T12:01:20;102568.09;;;19.20;73.27
52535;BME280;38443;53.164;5.802;2023-06-04T12:03:46;102565.19;;;19.26;73.16
52535;BME280;38443;53.164;5.802;2023-06-04T12:06:19;102565.81;;;19.33;75.58
52535;BME280;38443;53.164;5.802;2023-06-04T12:08:55;102575.13;;;19.26;77.42
52535;BME280;38443;53.164;5.802;2023-06-04T12:11:29;102575.00;;;19.05;80.28
52535;BME280;38443;53.164;5.802;2023-06-04T12:13:57;102586.97;;;19.00;82.98
52535;BME280;38443;53.164;5.802;2023-06-04T12:16:23;102571.75;;;18.96;85.15
52535;BME280;38443;53.164;5.802;2023-06-04T12:18:48;102571.28;;;18.84;85.17
52535;BME280;38443;53.164;5.802;2023-06-04T12:21:23;102562.03;;;18.63;90.06
52535;BME280;38443;53.164;5.802;2023-06-04T12:24:10;102577.13;;;18.45;92.93
52535;BME280;38443;53.164;5.802;2023-06-04T12:26:37;102575.75;;;18.32;95.69
52535;BME280;38443;53.164;5.802;2023-06-04T12:29:13;102578.53;;;18.04;97.05
52535;BME280;38443;53.164;5.802;2023-06-04T12:31:40;102579.34;;;18.06;98.20
52535;BME280;38443;53.164;5.802;2023-06-04T12:34:05;102576.13;;;17.94;100.00
52535;BME280;38443;53.164;5.802;2023-06-04T12:36:31;102575.34;;;17.91;100.00
52535;BME280;38443;53.164;5.802;2023-06-04T12:39:00;102575.13;;;17.97;100.00
52535;BME280;38443;53.164;5.802;2023-06-04T12:41:26;102584.31;;;18.20;100.00
52535;BME280;38443;53.164;5.802;2023-06-04T12:43:52;102580.66;;;18.22;100.00
52535;BME280;38443;53.164;5.802;2023-06-04T12:46:17;102581.00;;;18.38;100.00
52535;BME280;38443;53.164;5.802;2023-06-04T12:48:43;102573.44;;;18.21;100.00